createdAt,value
2019-05-26T00:01:34.373Z,0
2019-05-26T00:02:15.367Z,0
2019-05-26T00:02:56.042Z,0
2019-05-26T00:03:36.731Z,0
2019-05-26T00:04:17.073Z,0
2019-05-26T00:04:57.571Z,0
2019-05-26T00:05:37.916Z,0
2019-05-26T00:06:18.506Z,0
2019-05-26T00:06:58.912Z,0
2019-05-26T00:14:24.536Z,0
2019-05-26T00:15:04.969Z,0
2019-05-26T00:15:45.426Z,0
2019-05-26T00:16:26.397Z,0
2019-05-26T00:17:49.125Z,0
2019-05-26T00:24:51.903Z,0
2019-05-26T00:25:32.317Z,0
2019-05-26T00:26:12.716Z,0
2019-05-26T00:33:36.973Z,0
2019-05-26T00:34:17.387Z,0
2019-05-26T00:34:57.807Z,0
2019-05-26T00:35:38.160Z,0
2019-05-26T00:36:18.510Z,0
2019-05-26T00:36:58.959Z,0
2019-05-26T00:37:48.901Z,0
2019-05-26T00:38:19.732Z,0
2019-05-26T00:39:00.094Z,0
2019-05-26T00:39:40.430Z,0
2019-05-26T00:40:20.831Z,0
2019-05-26T00:41:01.282Z,0
2019-05-26T00:50:26.734Z,0
2019-05-26T00:51:07.061Z,0
2019-05-26T00:51:47.514Z,0
2019-05-26T00:52:27.884Z,0
2019-05-26T00:53:08.327Z,0
2019-05-26T00:53:48.678Z,0
2019-05-26T00:54:29.093Z,0
2019-05-26T00:55:09.526Z,0
2019-05-26T00:55:49.958Z,0
2019-05-26T00:56:30.217Z,0
2019-05-26T00:57:10.598Z,0
2019-05-26T00:57:51.020Z,0
2019-05-26T00:58:31.337Z,0
2019-05-26T01:07:16.630Z,0
2019-05-26T01:08:05.543Z,0
2019-05-26T01:08:37.345Z,0
2019-05-26T01:09:17.775Z,0
2019-05-26T01:09:58.126Z,0
2019-05-26T01:10:38.559Z,0
2019-05-26T01:18:07.925Z,0
2019-05-26T01:18:48.371Z,0
2019-05-26T01:19:29.192Z,0
2019-05-26T01:20:09.570Z,0
2019-05-26T01:25:33.116Z,0
2019-05-26T01:26:13.530Z,0
2019-05-26T01:26:54.039Z,0
2019-05-26T01:32:19.886Z,0
2019-05-26T01:33:00.320Z,0
2019-05-26T01:33:40.689Z,0
2019-05-26T01:40:25.029Z,0
2019-05-26T01:41:05.501Z,0
2019-05-26T01:41:46.246Z,0
2019-05-26T01:42:27.203Z,0
2019-05-26T01:43:07.539Z,0
2019-05-26T01:43:48.075Z,0
2019-05-26T01:44:28.332Z,0
2019-05-26T01:45:08.724Z,0
2019-05-26T01:45:49.112Z,0
2019-05-26T01:46:29.598Z,0
2019-05-26T01:47:09.954Z,0
2019-05-26T01:54:34.995Z,0
2019-05-26T01:55:15.442Z,0
2019-05-26T01:55:55.878Z,0
2019-05-26T01:56:36.319Z,0
2019-05-26T01:57:16.717Z,0
2019-05-26T01:57:57.150Z,0
2019-05-26T01:58:37.563Z,0
2019-05-26T01:59:18.030Z,0
2019-05-26T01:59:58.464Z,0
2019-05-26T02:00:38.881Z,0
2019-05-26T02:01:19.301Z,0
2019-05-26T02:01:59.883Z,0
2019-05-26T02:10:05.212Z,0
2019-05-26T02:10:45.719Z,0
2019-05-26T02:11:26.131Z,0
2019-05-26T02:12:06.638Z,0
2019-05-26T02:12:47.030Z,0
2019-05-26T02:13:27.454Z,0
2019-05-26T02:14:07.920Z,0
2019-05-26T02:14:48.279Z,0
2019-05-26T02:15:28.674Z,0
2019-05-26T02:16:09.120Z,0
2019-05-26T02:16:49.592Z,0
2019-05-26T02:21:25.125Z,0
2019-05-26T02:22:05.797Z,0
2019-05-26T02:22:46.188Z,0
2019-05-26T02:23:26.580Z,0
2019-05-26T02:24:07.093Z,0
2019-05-26T02:30:51.994Z,0
2019-05-26T02:31:32.377Z,0
2019-05-26T02:32:12.784Z,0
2019-05-26T02:32:53.263Z,0
2019-05-26T02:33:33.676Z,0
2019-05-26T02:34:14.071Z,0
2019-05-26T02:34:54.582Z,0
2019-05-26T02:35:34.987Z,0
2019-05-26T02:36:15.363Z,0
2019-05-26T02:36:55.731Z,0
2019-05-26T02:37:36.166Z,0
2019-05-26T02:38:16.617Z,0
2019-05-26T02:48:40.517Z,0
2019-05-26T02:49:20.925Z,0
2019-05-26T02:50:01.337Z,0
2019-05-26T02:56:47.116Z,0
2019-05-26T02:57:27.706Z,0
2019-05-26T02:58:08.201Z,0
2019-05-26T02:58:48.753Z,0
2019-05-26T02:59:29.294Z,0
2019-05-26T03:00:09.734Z,0
2019-05-26T03:00:50.112Z,0
2019-05-26T03:01:30.597Z,0
2019-05-26T03:08:15.825Z,0
2019-05-26T03:08:56.559Z,0
2019-05-26T03:09:37.170Z,0
2019-05-26T03:10:17.607Z,0
2019-05-26T03:10:58.396Z,0
2019-05-26T03:11:38.570Z,0
2019-05-26T03:12:19.006Z,0
2019-05-26T03:12:59.437Z,0
2019-05-26T03:13:39.830Z,0
2019-05-26T03:14:20.251Z,0
2019-05-26T03:15:00.700Z,0
2019-05-26T03:21:45.848Z,0
2019-05-26T03:22:26.306Z,0
2019-05-26T03:23:06.756Z,0
2019-05-26T03:23:47.173Z,0
2019-05-26T03:24:27.607Z,0
2019-05-26T03:25:08.594Z,0
2019-05-26T03:25:49.469Z,0
2019-05-26T03:26:29.893Z,0
2019-05-26T03:27:10.363Z,0
2019-05-26T03:27:50.764Z,0
2019-05-26T03:35:15.886Z,0
2019-05-26T03:35:56.317Z,0
2019-05-26T03:36:36.784Z,0
2019-05-26T03:37:17.168Z,0
2019-05-26T03:37:57.572Z,0
2019-05-26T03:38:37.967Z,0
2019-05-26T03:39:18.349Z,0
2019-05-26T03:39:58.752Z,0
2019-05-26T03:40:39.184Z,0
2019-05-26T03:41:19.589Z,0
2019-05-26T03:41:59.983Z,5
2019-05-26T03:42:40.394Z,5
2019-05-26T03:43:20.785Z,5
2019-05-26T03:52:06.026Z,5
2019-05-26T03:52:46.439Z,5
2019-05-26T03:53:26.841Z,5
2019-05-26T03:54:07.247Z,5
2019-05-26T03:54:47.630Z,5
2019-05-26T03:55:28.041Z,5
2019-05-26T03:56:08.526Z,10
2019-05-26T03:56:48.852Z,10
2019-05-26T03:57:29.261Z,10
2019-05-26T03:58:09.644Z,10
2019-05-26T03:58:50.065Z,10
2019-05-26T03:59:30.543Z,10
2019-05-26T04:08:15.930Z,35
2019-05-26T04:08:56.364Z,35
2019-05-26T04:09:36.957Z,35
2019-05-26T04:10:17.340Z,35
2019-05-26T04:10:57.697Z,30
2019-05-26T04:11:38.112Z,20
2019-05-26T04:12:18.493Z,20
2019-05-26T04:12:58.907Z,20
2019-05-26T04:13:39.314Z,20
2019-05-26T04:14:19.742Z,20
2019-05-26T04:15:00.164Z,20
2019-05-26T04:15:40.554Z,20
2019-05-26T04:23:46.073Z,30
2019-05-26T04:24:26.474Z,30
2019-05-26T04:25:06.885Z,30
2019-05-26T04:25:47.300Z,30
2019-05-26T04:26:27.716Z,30
2019-05-26T04:27:08.346Z,30
2019-05-26T04:27:48.817Z,30
2019-05-26T04:28:29.188Z,30
2019-05-26T05:05:53.931Z,70
2019-05-26T05:06:34.103Z,70
2019-05-26T05:07:19.522Z,70
2019-05-26T05:07:59.840Z,70
2019-05-26T05:08:40.376Z,75
2019-05-26T05:14:20.231Z,80
2019-05-26T05:15:02.833Z,80
2019-05-26T05:15:43.191Z,75
2019-05-26T05:17:54.111Z,75
2019-05-26T05:19:15.882Z,85
2019-05-26T05:19:56.123Z,80
2019-05-26T05:20:38.341Z,85
2019-05-26T05:21:19.178Z,80
2019-05-26T05:28:05.098Z,150
2019-05-26T05:28:45.436Z,155
2019-05-26T05:34:20.475Z,195
2019-05-26T05:38:25.202Z,195
2019-05-26T05:39:46.012Z,185
2019-05-26T05:40:26.451Z,155
2019-05-26T05:41:06.870Z,160
2019-05-26T05:41:47.253Z,160
2019-05-26T05:42:27.646Z,170
2019-05-26T05:43:08.040Z,170
2019-05-26T05:43:48.415Z,175
2019-05-26T05:44:28.838Z,165
2019-05-26T05:45:09.259Z,165
2019-05-26T05:45:49.676Z,190
2019-05-26T05:53:15.037Z,195
2019-05-26T05:53:55.401Z,185
2019-05-26T05:54:36.926Z,185
2019-05-26T05:55:17.306Z,185
2019-05-26T05:55:57.792Z,190
2019-05-26T05:56:38.282Z,190
2019-05-26T06:02:20.282Z,220
2019-05-26T06:03:00.708Z,235
2019-05-26T06:03:41.157Z,240
2019-05-26T06:10:27.056Z,855
2019-05-26T06:17:24.977Z,505
2019-05-26T06:18:05.132Z,445
2019-05-26T06:18:45.585Z,455
2019-05-26T06:22:09.580Z,585
2019-05-26T06:22:51.634Z,600
2019-05-26T06:23:35.980Z,635
2019-05-26T06:24:13.032Z,705
2019-05-26T06:24:53.596Z,730
2019-05-26T06:25:34.275Z,825
2019-05-26T06:33:01.116Z,715
2019-05-26T06:33:42.155Z,735
2019-05-26T06:34:22.035Z,690
2019-05-26T06:35:02.598Z,655
2019-05-26T06:35:43.092Z,640
2019-05-26T06:36:24.069Z,675
2019-05-26T06:42:50.225Z,705
2019-05-26T06:43:30.825Z,630
2019-05-26T06:44:11.068Z,520
2019-05-26T06:44:53.777Z,415
2019-05-26T06:46:14.267Z,340
2019-05-26T06:47:47.229Z,325
2019-05-26T06:50:07.329Z,330
2019-05-26T06:50:48.048Z,320
2019-05-26T06:51:29.012Z,310
2019-05-26T06:53:01.085Z,290
2019-05-26T06:54:22.811Z,325
2019-05-26T06:58:31.578Z,345
2019-05-26T06:59:11.943Z,310
2019-05-26T06:59:52.387Z,265
2019-05-26T07:03:15.976Z,310
2019-05-26T07:03:56.487Z,310
2019-05-26T07:04:36.920Z,310
2019-05-26T07:05:18.464Z,310
2019-05-26T07:05:57.843Z,345
2019-05-26T07:14:44.806Z,325
2019-05-26T07:15:25.187Z,335
2019-05-26T07:16:05.825Z,350
2019-05-26T07:16:46.020Z,365
2019-05-26T07:17:26.435Z,375
2019-05-26T07:18:07.165Z,365
2019-05-26T07:18:47.384Z,375
2019-05-26T07:19:27.969Z,355
2019-05-26T07:20:08.415Z,340
2019-05-26T07:27:26.577Z,195
2019-05-26T07:28:07.427Z,185
2019-05-26T07:28:49.687Z,175
2019-05-26T07:31:31.247Z,165
2019-05-26T07:32:11.665Z,180
2019-05-26T07:32:52.817Z,195
2019-05-26T07:33:33.061Z,200
2019-05-26T07:34:13.454Z,195
2019-05-26T07:34:53.819Z,180
2019-05-26T07:35:34.326Z,175
2019-05-26T07:36:14.708Z,160
2019-05-26T07:36:55.908Z,145
2019-05-26T07:37:36.226Z,130
2019-05-26T07:44:22.511Z,115
2019-05-26T07:45:02.064Z,120
2019-05-26T07:45:42.517Z,125
2019-05-26T07:46:22.906Z,130
2019-05-26T07:47:03.569Z,125
2019-05-26T07:47:44.905Z,125
2019-05-26T07:48:25.273Z,130
2019-05-26T07:49:05.707Z,130
2019-05-26T07:49:46.139Z,135
2019-05-26T07:57:06.046Z,110
2019-05-26T07:57:47.901Z,115
2019-05-26T07:58:28.685Z,110
2019-05-26T08:00:46.372Z,120
2019-05-26T08:01:35.384Z,120
2019-05-26T08:02:07.308Z,120
2019-05-26T08:02:47.614Z,120
2019-05-26T08:03:28.236Z,120
2019-05-26T08:04:08.461Z,120
2019-05-26T08:04:48.902Z,120
2019-05-26T08:05:29.337Z,120
2019-05-26T08:06:09.736Z,120
2019-05-26T08:06:50.155Z,120
2019-05-26T08:07:30.581Z,120
2019-05-26T08:16:16.396Z,110
2019-05-26T08:16:56.876Z,110
2019-05-26T08:17:37.248Z,110
2019-05-26T08:18:17.746Z,110
2019-05-26T08:18:58.163Z,105
2019-05-26T08:19:38.629Z,105
2019-05-26T08:20:19.085Z,105
2019-05-26T08:20:59.468Z,105
2019-05-26T08:21:39.945Z,105
2019-05-26T08:22:20.342Z,100
2019-05-26T08:23:00.831Z,100
2019-05-26T08:25:13.720Z,100
2019-05-26T08:25:56.843Z,105
2019-05-26T08:26:37.197Z,100
2019-05-26T08:28:39.615Z,100
2019-05-26T08:29:21.684Z,90
2019-05-26T08:30:02.164Z,90
2019-05-26T08:30:42.604Z,90
2019-05-26T08:31:23.032Z,90
2019-05-26T08:37:28.483Z,85
2019-05-26T08:38:08.829Z,85
2019-05-26T08:38:49.282Z,85
2019-05-26T08:39:29.623Z,85
2019-05-26T08:40:11.093Z,85
2019-05-26T08:40:51.561Z,85
2019-05-26T08:41:31.978Z,85
2019-05-26T08:42:26.205Z,85
2019-05-26T08:48:58.664Z,80
2019-05-26T08:49:39.055Z,80
2019-05-26T08:50:19.757Z,80
2019-05-26T08:51:00.074Z,80
2019-05-26T08:51:40.470Z,80
2019-05-26T08:52:21.054Z,80
2019-05-26T08:53:01.437Z,80
2019-05-26T08:59:26.373Z,75
2019-05-26T09:00:07.160Z,75
2019-05-26T09:00:47.488Z,75
2019-05-26T09:07:31.695Z,70
2019-05-26T09:08:11.942Z,70
2019-05-26T09:08:52.401Z,80
2019-05-26T09:09:32.782Z,85
2019-05-26T09:16:40.144Z,100
2019-05-26T09:17:20.569Z,100
2019-05-26T09:18:00.976Z,100
2019-05-26T09:20:02.677Z,100
2019-05-26T09:20:44.007Z,100
2019-05-26T09:24:12.513Z,105
2019-05-26T09:24:52.775Z,115
2019-05-26T09:25:35.383Z,100
2019-05-26T09:26:15.873Z,100
2019-05-26T09:26:56.303Z,95
2019-05-26T09:35:40.083Z,75
2019-05-26T09:36:20.601Z,75
2019-05-26T09:37:02.814Z,75
2019-05-26T09:39:05.185Z,80
2019-05-26T09:39:45.651Z,85
2019-05-26T09:40:26.456Z,80
2019-05-26T09:41:07.701Z,80
2019-05-26T09:41:48.627Z,75
2019-05-26T09:42:29.108Z,75
2019-05-26T09:43:15.906Z,75
2019-05-26T09:50:35.241Z,80
2019-05-26T09:51:15.625Z,75
2019-05-26T09:51:56.029Z,75
2019-05-26T09:52:36.542Z,80
2019-05-26T09:53:17.812Z,75
2019-05-26T09:54:01.511Z,75
2019-05-26T09:54:39.224Z,75
2019-05-26T09:55:19.600Z,75
2019-05-26T09:56:00.009Z,75
2019-05-26T10:00:45.318Z,75
2019-05-26T10:01:26.070Z,75
2019-05-26T10:02:06.439Z,75
2019-05-26T10:02:46.866Z,70
2019-05-26T10:03:27.344Z,70
2019-05-26T10:04:07.777Z,70
2019-05-26T10:04:48.354Z,70
2019-05-26T10:05:29.004Z,70
2019-05-26T10:12:15.365Z,55
2019-05-26T10:12:56.225Z,55
2019-05-26T10:13:36.916Z,55
2019-05-26T10:14:16.936Z,55
2019-05-26T10:14:57.341Z,50
2019-05-26T10:15:37.898Z,50
2019-05-26T10:16:18.508Z,50
2019-05-26T10:28:34.925Z,45
2019-05-26T10:29:16.254Z,45
2019-05-26T11:08:51.721Z,40
2019-05-26T11:09:31.568Z,40
2019-05-26T11:10:12.057Z,40
2019-05-26T11:13:35.459Z,40
2019-05-26T11:14:16.147Z,45
2019-05-26T11:14:56.612Z,45
2019-05-26T11:15:37.212Z,45
2019-05-26T11:16:17.568Z,40
2019-05-26T11:18:56.932Z,40
2019-05-26T11:19:37.603Z,40
2019-05-26T11:20:18.187Z,45
2019-05-26T11:22:21.821Z,45
2019-05-26T11:23:02.037Z,45
2019-05-26T11:23:42.512Z,45
2019-05-26T11:24:22.958Z,50
2019-05-26T11:25:03.646Z,50
2019-05-26T11:25:44.083Z,50
2019-05-26T11:26:24.551Z,50
2019-05-26T11:27:10.506Z,50
2019-05-26T11:27:45.701Z,50
2019-05-26T11:28:26.143Z,50
2019-05-26T11:29:06.549Z,50
2019-05-26T11:35:51.834Z,55
2019-05-26T11:36:32.342Z,55
2019-05-26T11:37:13.151Z,55
2019-05-26T11:37:53.436Z,55
2019-05-26T11:38:34.027Z,55
2019-05-26T11:39:15.619Z,55
2019-05-26T11:44:41.602Z,55
2019-05-26T11:45:22.060Z,60
2019-05-26T11:46:03.929Z,60
2019-05-26T11:46:44.373Z,60
2019-05-26T11:47:25.647Z,60
2019-05-26T11:48:06.308Z,60
2019-05-26T11:53:30.473Z,60
2019-05-26T11:54:15.721Z,60
2019-05-26T11:54:58.278Z,60
2019-05-26T11:55:38.766Z,60
2019-05-26T11:58:23.900Z,60
2019-05-26T11:59:04.873Z,60
2019-05-26T11:59:47.491Z,60
2019-05-26T12:00:27.489Z,65
2019-05-26T12:04:32.857Z,60
2019-05-26T12:05:17.189Z,60
2019-05-26T12:06:36.161Z,60
2019-05-26T12:07:16.562Z,60
2019-05-26T12:07:57.162Z,60
2019-05-26T12:08:39.590Z,60
2019-05-26T12:12:02.898Z,60
2019-05-26T12:12:43.689Z,60
2019-05-26T12:20:46.619Z,60
2019-05-26T12:21:27.218Z,60
2019-05-26T12:22:08.022Z,60
2019-05-26T12:25:32.066Z,60
2019-05-26T12:26:14.546Z,60
2019-05-26T12:26:55.593Z,60
2019-05-26T12:31:40.690Z,65
2019-05-26T12:32:21.163Z,65
2019-05-26T12:33:01.667Z,65
2019-05-26T12:35:10.927Z,65
2019-05-26T12:35:53.228Z,65
2019-05-26T12:39:21.724Z,65
2019-05-26T12:40:02.546Z,65
2019-05-26T12:40:43.069Z,70
2019-05-26T12:41:24.254Z,70
2019-05-26T12:42:04.585Z,70
2019-05-26T12:42:51.848Z,70
2019-05-26T12:43:32.571Z,70
2019-05-26T12:44:14.131Z,65
2019-05-26T12:48:21.235Z,65
2019-05-26T12:49:01.579Z,65
2019-05-26T12:50:22.540Z,65
2019-05-26T12:51:04.438Z,65
2019-05-26T12:51:44.981Z,65
2019-05-26T12:58:02.777Z,60
2019-05-26T12:58:43.480Z,60
2019-05-26T12:59:25.653Z,60
2019-05-26T13:00:06.702Z,60
2019-05-26T13:00:50.689Z,60
2019-05-26T13:01:27.927Z,60
2019-05-26T13:04:16.635Z,60
2019-05-26T13:04:59.407Z,60
2019-05-26T13:05:39.496Z,60
2019-05-26T13:06:19.928Z,60
2019-05-26T13:11:46.732Z,60
2019-05-26T13:12:26.749Z,60
2019-05-26T13:13:07.810Z,60
2019-05-26T13:13:48.193Z,60
2019-05-26T13:14:28.576Z,60
2019-05-26T13:15:51.178Z,60
2019-05-26T13:16:33.952Z,60
2019-05-26T13:21:16.876Z,60
2019-05-26T13:22:00.648Z,55
2019-05-26T13:22:41.375Z,60
2019-05-26T13:28:06.532Z,55
2019-05-26T13:28:47.233Z,55
2019-05-26T13:29:27.751Z,55
2019-05-26T13:30:08.283Z,55
2019-05-26T13:34:21.066Z,60
2019-05-26T13:35:01.521Z,55
2019-05-26T13:35:41.888Z,55
2019-05-26T13:36:22.337Z,55
2019-05-26T13:41:46.065Z,55
2019-05-26T13:42:26.468Z,55
2019-05-26T13:43:06.963Z,55
2019-05-26T13:43:48.461Z,50
2019-05-26T13:44:28.937Z,50
2019-05-26T13:45:21.513Z,50
2019-05-26T13:45:50.270Z,50
2019-05-26T13:46:30.757Z,50
2019-05-26T13:51:15.864Z,40
2019-05-26T13:51:55.795Z,45
2019-05-26T13:52:36.246Z,45
2019-05-26T13:53:16.718Z,45
2019-05-26T13:53:57.061Z,45
2019-05-26T13:54:37.722Z,40
2019-05-26T13:55:18.391Z,40
2019-05-26T13:55:58.832Z,40
2019-05-26T13:56:39.131Z,40
2019-05-26T13:57:19.534Z,40
2019-05-26T13:58:00.049Z,40
2019-05-26T13:58:40.690Z,40
2019-05-26T14:04:06.065Z,30
2019-05-26T14:04:46.685Z,30
2019-05-26T14:05:27.095Z,30
2019-05-26T14:06:07.962Z,25
2019-05-26T14:06:48.537Z,25
2019-05-26T14:07:29.230Z,25
2019-05-26T14:08:09.627Z,25
2019-05-26T14:12:30.051Z,15
2019-05-26T14:13:10.021Z,15
2019-05-26T14:13:50.579Z,15
2019-05-26T14:17:55.288Z,15
2019-05-26T14:18:36.059Z,15
2019-05-26T14:19:17.579Z,15
2019-05-26T14:19:58.073Z,15
2019-05-26T14:20:39.248Z,10
2019-05-26T14:24:53.586Z,10
2019-05-26T14:25:26.836Z,10
2019-05-26T14:26:07.272Z,10
2019-05-26T14:26:47.671Z,10
2019-05-26T14:27:28.141Z,10
2019-05-26T14:28:08.565Z,10
2019-05-26T14:28:48.933Z,10
2019-05-26T14:37:37.691Z,15
2019-05-26T14:38:20.157Z,15
2019-05-26T14:39:00.582Z,15
2019-05-26T14:39:42.055Z,15
2019-05-26T14:40:23.632Z,20
2019-05-26T14:41:04.017Z,20
2019-05-26T14:41:44.466Z,20
2019-05-26T14:42:24.921Z,20
2019-05-26T14:45:12.241Z,20
2019-05-26T14:46:33.312Z,20
2019-05-26T14:47:13.786Z,20
2019-05-26T14:47:54.494Z,20
2019-05-26T14:48:35.040Z,20
2019-05-26T14:54:40.978Z,20
2019-05-26T14:55:23.246Z,20
2019-05-26T14:56:03.899Z,20
2019-05-26T14:56:44.342Z,20
2019-05-26T14:57:24.988Z,20
2019-05-26T14:58:14.687Z,20
2019-05-26T15:00:53.359Z,20
2019-05-26T15:01:34.792Z,20
2019-05-26T15:05:01.550Z,20
2019-05-26T15:05:41.978Z,20
2019-05-26T15:06:22.379Z,20
2019-05-26T15:07:04.437Z,20
2019-05-26T15:07:44.813Z,20
2019-05-26T15:18:00.095Z,15
2019-05-26T15:18:58.729Z,15
2019-05-26T15:19:53.656Z,15
2019-05-26T15:20:48.087Z,15
2019-05-26T15:21:46.673Z,15
2019-05-26T15:22:41.011Z,15
2019-05-26T16:13:21.599Z,15
2019-05-26T16:14:02.109Z,15
2019-05-26T16:14:42.403Z,15
2019-05-26T16:19:26.779Z,15
2019-05-26T16:24:17.440Z,10
2019-05-26T16:25:01.695Z,10
2019-05-26T16:25:43.064Z,10
2019-05-26T16:26:25.211Z,10
2019-05-26T16:27:18.477Z,10
2019-05-26T16:27:46.016Z,10
2019-05-26T17:08:49.380Z,10
2019-05-26T17:09:29.795Z,10
2019-05-26T17:10:10.254Z,10
2019-05-26T17:16:40.986Z,15
2019-05-26T17:17:21.385Z,15
2019-05-26T17:18:02.183Z,15
2019-05-26T17:24:05.905Z,20
2019-05-26T17:24:46.751Z,20
2019-05-26T17:25:27.072Z,20
2019-05-26T17:26:07.482Z,20
2019-05-26T17:26:49.839Z,20
2019-05-26T17:27:30.214Z,20
2019-05-26T17:28:10.580Z,20
2019-05-26T17:31:36.534Z,20
2019-05-26T17:32:18.513Z,20
2019-05-26T17:33:00.054Z,20
2019-05-26T17:33:40.407Z,20
2019-05-26T17:39:05.951Z,15
2019-05-26T17:39:46.284Z,15
2019-05-26T17:40:26.668Z,15
2019-05-26T17:41:07.026Z,15
2019-05-26T17:41:47.431Z,15
2019-05-26T17:42:30.456Z,15
2019-05-26T17:49:57.376Z,15
2019-05-26T17:50:37.773Z,15
2019-05-26T17:51:18.204Z,15
2019-05-26T17:52:00.321Z,15
2019-05-26T17:53:25.818Z,15
2019-05-26T17:54:08.716Z,15
2019-05-26T17:54:49.271Z,15
2019-05-26T17:55:29.745Z,15
2019-05-26T17:56:10.107Z,15
2019-05-26T17:59:37.354Z,15
2019-05-26T18:00:18.252Z,15
2019-05-26T18:00:58.324Z,20
2019-05-26T18:01:39.218Z,20
2019-05-26T18:02:19.674Z,20
2019-05-26T18:03:00.604Z,20
2019-05-26T18:05:08.657Z,20
2019-05-26T18:07:55.817Z,20
2019-05-26T18:08:37.306Z,20
2019-05-26T18:09:17.056Z,20
2019-05-26T18:09:57.594Z,20
2019-05-26T18:10:38.274Z,20
2019-05-26T18:11:18.523Z,20
2019-05-26T18:15:26.252Z,20
2019-05-26T18:16:06.597Z,20
2019-05-26T18:16:48.620Z,20
2019-05-26T18:17:44.093Z,20
2019-05-26T18:18:09.645Z,20
2019-05-26T18:18:50.838Z,20
2019-05-26T18:22:15.740Z,15
2019-05-26T18:22:56.059Z,15
2019-05-26T18:23:36.845Z,15
2019-05-26T18:24:17.893Z,15
2019-05-26T18:24:59.456Z,15
2019-05-26T18:29:47.390Z,15
2019-05-26T18:30:28.209Z,15
2019-05-26T18:31:08.385Z,15
2019-05-26T18:31:51.093Z,10
2019-05-26T18:35:58.015Z,10
2019-05-26T18:36:38.643Z,10
2019-05-26T18:37:19.603Z,10
2019-05-26T18:38:00.194Z,10
2019-05-26T18:42:08.843Z,10
2019-05-26T18:42:50.343Z,10
2019-05-26T18:43:35.727Z,10
2019-05-26T18:44:16.140Z,5
2019-05-26T18:44:57.064Z,5
2019-05-26T18:45:39.818Z,5
2019-05-26T18:46:19.146Z,5
2019-05-26T18:46:59.830Z,5
2019-05-26T18:47:40.301Z,5
2019-05-26T18:49:46.128Z,5
2019-05-26T18:50:28.644Z,5
2019-05-26T18:51:10.240Z,5
2019-05-26T18:52:36.236Z,5
2019-05-26T18:53:15.945Z,5
2019-05-26T18:56:59.910Z,0
2019-05-26T18:57:40.664Z,0
2019-05-26T18:58:21.909Z,0
2019-05-26T18:59:47.568Z,0
2019-05-26T19:01:56.338Z,0
2019-05-26T19:02:40.928Z,0
2019-05-26T19:03:25.513Z,0
2019-05-26T19:04:08.035Z,0
2019-05-26T19:06:55.097Z,0
2019-05-26T19:07:35.678Z,0
2019-05-26T19:08:16.234Z,0
2019-05-26T19:08:56.572Z,0
2019-05-26T19:09:36.989Z,0
2019-05-26T19:10:17.367Z,0
2019-05-26T19:10:57.802Z,0
2019-05-26T19:11:38.339Z,0
2019-05-26T19:18:23.594Z,0
2019-05-26T19:19:03.909Z,0
2019-05-26T19:19:44.358Z,0
2019-05-26T19:20:25.618Z,0
2019-05-26T19:21:06.426Z,0
2019-05-26T19:21:46.790Z,0
2019-05-26T19:22:27.145Z,0
2019-05-26T19:23:07.641Z,0
2019-05-26T19:23:47.981Z,0
2019-05-26T19:31:13.397Z,0
2019-05-26T19:31:53.809Z,0
2019-05-26T19:32:34.293Z,0
2019-05-26T19:33:14.587Z,0
2019-05-26T19:33:57.151Z,0
2019-05-26T19:34:37.282Z,0
2019-05-26T19:42:03.224Z,0
2019-05-26T19:42:43.663Z,0
2019-05-26T19:43:23.985Z,0
2019-05-26T19:44:05.149Z,0
2019-05-26T19:44:46.069Z,0
2019-05-26T19:53:21.234Z,0
2019-05-26T19:54:01.352Z,0
2019-05-26T19:54:41.772Z,0
2019-05-26T19:55:22.305Z,0
2019-05-26T19:56:02.907Z,0
2019-05-26T19:59:30.658Z,0
2019-05-26T20:06:15.824Z,0
2019-05-26T20:06:56.213Z,0
2019-05-26T20:07:36.637Z,0
2019-05-26T20:13:40.967Z,0
2019-05-26T20:14:21.395Z,0
2019-05-26T20:15:01.818Z,0
2019-05-26T20:15:42.160Z,0
2019-05-26T20:16:22.582Z,0
2019-05-26T20:17:03.656Z,0
2019-05-26T20:17:44.039Z,0
2019-05-26T20:18:24.486Z,0
2019-05-26T20:19:04.826Z,0
2019-05-26T20:19:45.242Z,0
2019-05-26T20:20:25.627Z,0
2019-05-26T20:27:10.772Z,0
2019-05-26T20:27:51.178Z,0
2019-05-26T20:28:31.580Z,0
2019-05-26T20:29:12.137Z,0
2019-05-26T20:29:52.557Z,0
2019-05-26T20:30:32.917Z,0
2019-05-26T20:31:13.390Z,0
2019-05-26T20:31:53.901Z,0
2019-05-26T20:32:34.196Z,0
2019-05-26T20:33:14.584Z,0
2019-05-26T20:33:55.114Z,0
2019-05-26T20:39:20.963Z,0
2019-05-26T20:40:01.406Z,0
2019-05-26T20:40:41.907Z,0
2019-05-26T20:41:22.369Z,0
2019-05-26T20:42:02.752Z,0
2019-05-26T20:42:43.152Z,0
2019-05-26T20:43:25.087Z,0
2019-05-26T20:44:04.022Z,0
2019-05-26T20:44:44.593Z,0
2019-05-26T20:45:24.823Z,0
2019-05-26T20:46:05.248Z,0
2019-05-26T20:46:45.571Z,0
2019-05-26T20:52:19.357Z,0
2019-05-26T20:52:59.802Z,0
2019-05-26T20:53:40.697Z,0
2019-05-26T20:57:44.530Z,0
2019-05-26T20:58:24.913Z,0
2019-05-26T20:59:05.256Z,0
2019-05-26T20:59:45.691Z,0
2019-05-26T21:00:26.062Z,0
2019-05-26T21:01:08.351Z,0
2019-05-26T21:01:51.276Z,0
2019-05-26T21:06:35.685Z,0
2019-05-26T21:07:16.043Z,0
2019-05-26T21:07:56.479Z,0
2019-05-26T21:08:36.871Z,0
2019-05-26T21:09:17.233Z,0
2019-05-26T21:09:57.853Z,0
2019-05-26T21:10:38.194Z,0
2019-05-26T21:11:18.617Z,0
2019-05-26T21:11:58.979Z,0
2019-05-26T21:20:05.007Z,0
2019-05-26T21:20:46.472Z,0
2019-05-26T21:21:29.557Z,0
2019-05-26T21:28:15.521Z,0
2019-05-26T21:28:55.931Z,0
2019-05-26T21:29:36.323Z,0
2019-05-26T21:30:16.676Z,0
2019-05-26T21:30:57.047Z,0
2019-05-26T21:31:37.762Z,0
2019-05-26T21:32:18.066Z,0
2019-05-26T21:32:58.475Z,0
2019-05-26T21:33:38.891Z,0
2019-05-26T21:37:44.697Z,0
2019-05-26T21:38:25.517Z,0
2019-05-26T21:39:07.887Z,0
2019-05-26T21:39:48.247Z,0
2019-05-26T21:40:28.657Z,0
2019-05-26T21:41:09.002Z,0
2019-05-26T21:48:34.984Z,0
2019-05-26T21:49:14.998Z,0
2019-05-26T21:49:55.402Z,0
2019-05-26T21:50:35.882Z,0
2019-05-26T21:51:16.209Z,0
2019-05-26T21:51:56.603Z,0
2019-05-26T21:52:36.972Z,0
2019-05-26T21:53:18.640Z,0
2019-05-26T21:53:58.652Z,0
2019-05-26T21:54:41.165Z,0
2019-05-26T22:02:44.668Z,0
2019-05-26T22:03:25.062Z,0
2019-05-26T22:04:06.204Z,0
2019-05-26T22:04:47.596Z,0
2019-05-26T22:06:08.682Z,0
2019-05-26T22:13:37.142Z,0
2019-05-26T22:14:17.548Z,0
2019-05-26T22:14:57.870Z,0
2019-05-26T22:15:38.246Z,0
2019-05-26T22:16:18.675Z,0
2019-05-26T22:16:59.064Z,0
2019-05-26T22:22:29.541Z,0
2019-05-26T22:23:10.039Z,0
2019-05-26T22:23:50.507Z,0
2019-05-26T23:08:04.785Z,0
2019-05-26T23:08:44.989Z,0
2019-05-26T23:09:25.485Z,0
2019-05-26T23:15:29.256Z,0
2019-05-26T23:16:09.649Z,0
2019-05-26T23:16:50.076Z,0
2019-05-26T23:17:30.527Z,0
2019-05-26T23:18:10.937Z,0
2019-05-26T23:18:51.363Z,0
2019-05-26T23:21:34.160Z,0
2019-05-26T23:22:14.498Z,0
2019-05-26T23:22:54.959Z,0
2019-05-26T23:27:37.903Z,0
2019-05-26T23:28:18.318Z,0
2019-05-26T23:28:58.784Z,0
2019-05-26T23:29:39.187Z,0
2019-05-26T23:30:19.645Z,0
2019-05-26T23:31:00.046Z,0
2019-05-26T23:31:40.620Z,0
2019-05-26T23:32:20.988Z,0
2019-05-26T23:33:01.654Z,0
2019-05-26T23:33:41.942Z,0
2019-05-26T23:34:22.347Z,0
2019-05-26T23:42:28.105Z,0
2019-05-26T23:43:09.326Z,0
2019-05-26T23:43:49.750Z,0
2019-05-26T23:44:30.566Z,0
2019-05-26T23:45:10.978Z,0
2019-05-26T23:45:51.402Z,0
2019-05-26T23:46:31.853Z,0
2019-05-26T23:47:12.282Z,0
2019-05-26T23:55:17.794Z,0
2019-05-26T23:55:58.358Z,0
2019-05-26T23:56:38.874Z,0
2019-05-26T23:57:19.420Z,0
2019-05-26T23:57:59.811Z,0
2019-05-26T23:58:40.361Z,0
2019-05-26T23:59:20.733Z,0
